Time;durP1;ratioP1;P1;durP2;ratioP2;P2;SDS_P1;SDS_P2;PMS_P1;PMS_P2;Temp;Humidity;BMP_temperature;BMP_pressure;BME280_temperature;BME280_humidity;BME280_pressure;Samples;Min_cycle;Max_cycle;Signal;HPM_P1;HPM_P2
2022/08/09 00:00:24;;;;;;;;;;;30.70;45.40;;;;;;682076;29;1324;-92
2022/08/09 00:00:48;;;;;;;;;;;30.70;45.30;;;;;;683971;29;1148;-92
2022/08/09 00:01:09;;;;;;;;;;;;;;;;;;676751;29;1344;-94
2022/08/09 00:01:31;;;;;;;;;;;30.70;45.40;;;;;;678667;29;1162;-95
2022/08/09 00:01:54;;;;;;;;;;;30.60;45.40;;;;;;678363;29;1262;-93
2022/08/09 00:02:15;;;;;;;;;;;30.70;45.40;;;;;;680376;29;1191;-93
2022/08/09 00:02:38;;;;;;;;;;;30.70;45.60;;;;;;679792;29;1250;-96
2022/08/09 00:03:16;;;;;;;;;;;30.70;45.40;;;;;;686763;28;1145;-92
2022/08/09 00:04:07;;;;;;;;;;;30.80;45.70;;;;;;687460;28;1268;-92
2022/08/09 00:04:33;;;;;;;;;;;30.70;45.40;;;;;;684698;29;1312;-94
2022/08/09 00:04:54;;;;;;;;;;;30.80;45.50;;;;;;684385;29;926;-94
2022/08/09 00:05:21;;;;;;;;;;;30.70;45.40;;;;;;683434;29;1379;-88
2022/08/09 00:05:42;;;;;;;;;;;30.80;45.50;;;;;;683608;29;1264;-94
2022/08/09 00:06:03;;;;;;;;;;;30.80;45.60;;;;;;683970;29;1268;-91
2022/08/09 00:06:34;;;;;;;;;;;30.70;45.50;;;;;;681265;29;1494;-88
2022/08/09 00:06:59;;;;;;;;;;;30.70;45.60;;;;;;681525;29;987;-92
2022/08/09 00:07:24;;;;;;;;;;;30.70;45.70;;;;;;679198;29;1374;-91
2022/08/09 00:07:52;;;;;;;;;;;30.70;45.70;;;;;;679414;29;1277;-96
2022/08/09 00:08:22;;;;;;;;;;;30.70;45.80;;;;;;683200;28;1213;-88
2022/08/09 00:08:47;;;;;;;;;;;30.70;45.90;;;;;;685636;28;1001;-96
2022/08/09 00:09:08;;;;;;;;;;;30.70;45.90;;;;;;684018;29;1311;-94
2022/08/09 00:09:31;;;;;;;;;;;30.70;45.90;;;;;;683592;29;1299;-96
2022/08/09 00:09:53;;;;;;;;;;;30.70;45.90;;;;;;678829;29;1293;-95
2022/08/09 00:10:18;;;;;;;;;;;30.70;45.90;;;;;;679371;29;1100;-94
2022/08/09 00:10:49;;;;;;;;;;;30.70;46.00;;;;;;679727;29;1012;-94
2022/08/09 00:11:11;;;;;;;;;;;30.60;46.00;;;;;;679555;29;1131;-96
2022/08/09 00:11:39;;;;;;;;;;;30.70;46.10;;;;;;675085;29;1720;-96
2022/08/09 00:12:00;;;;;;;;;;;30.70;46.10;;;;;;674501;29;1442;-90
2022/08/09 00:12:23;;;;;;;;;;;30.70;46.10;;;;;;673396;29;1458;-92
2022/08/09 00:12:44;;;;;;;;;;;30.70;46.10;;;;;;672845;29;1193;-92
2022/08/09 00:13:07;;;;;;;;;;;30.70;46.10;;;;;;672528;29;1261;-94
2022/08/09 00:13:28;;;;;;;;;;;30.70;46.20;;;;;;674508;29;1236;-95
2022/08/09 00:13:49;;;;;;;;;;;30.70;46.30;;;;;;676436;29;1494;-95
2022/08/09 00:14:35;;;;;;;;;;;30.60;46.10;;;;;;692623;28;1318;-94
2022/08/09 00:14:56;;;;;;;;;;;30.70;46.30;;;;;;687496;28;1194;-96
2022/08/09 00:15:19;;;;;;;;;;;30.70;46.30;;;;;;688457;28;1142;-90
2022/08/09 00:15:40;;;;;;;;;;;30.70;46.40;;;;;;688531;28;1273;-93
2022/08/09 00:16:01;;;;;;;;;;;30.60;46.40;;;;;;689861;28;993;-92
2022/08/09 00:16:22;;;;;;;;;;;30.60;46.40;;;;;;687130;28;1161;-96
2022/08/09 00:16:42;;;;;;;;;;;;;;;;;;684919;28;1422;-92
2022/08/09 00:17:03;;;;;;;;;;;30.60;46.50;;;;;;685418;28;918;-92
2022/08/09 00:17:24;;;;;;;;;;;30.60;46.50;;;;;;684153;28;1683;-91
2022/08/09 00:17:54;;;;;;;;;;;30.60;46.50;;;;;;686797;28;1299;-92
2022/08/09 00:18:18;;;;;;;;;;;30.50;46.50;;;;;;688846;28;1278;-92
2022/08/09 00:18:44;;;;;;;;;;;30.50;46.50;;;;;;689673;28;1403;-91
2022/08/09 00:19:09;;;;;;;;;;;30.60;46.80;;;;;;687398;28;939;-93
2022/08/09 00:19:34;;;;;;;;;;;30.50;46.70;;;;;;685440;28;1270;-90
2022/08/09 00:19:54;;;;;;;;;;;30.60;46.80;;;;;;686545;28;1392;-92
2022/08/09 00:20:20;;;;;;;;;;;30.60;46.90;;;;;;688913;28;1204;-92
2022/08/09 00:20:47;;;;;;;;;;;30.50;46.80;;;;;;690876;28;1235;-96
2022/08/09 00:21:09;;;;;;;;;;;30.50;46.90;;;;;;691642;28;1295;-96
2022/08/09 00:21:30;;;;;;;;;;;30.50;47.00;;;;;;691794;28;1338;-90
2022/08/09 00:21:50;;;;;;;;;;;30.50;47.00;;;;;;690300;28;1302;-96
2022/08/09 00:22:11;;;;;;;;;;;30.50;47.10;;;;;;689636;28;1358;-95
2022/08/09 00:22:31;;;;;;;;;;;30.50;47.20;;;;;;686307;28;1264;-93
2022/08/09 00:22:52;;;;;;;;;;;30.50;47.30;;;;;;685685;28;1198;-94
2022/08/09 00:23:12;;;;;;;;;;;30.50;47.40;;;;;;686222;28;819;-94
2022/08/09 00:23:33;;;;;;;;;;;30.40;47.50;;;;;;686130;28;1462;-94
2022/08/09 00:23:54;;;;;;;;;;;30.40;47.60;;;;;;689027;28;1217;-93
2022/08/09 00:24:15;;;;;;;;;;;30.50;47.80;;;;;;688696;28;1302;-93
2022/08/09 00:24:36;;;;;;;;;;;30.40;47.80;;;;;;686597;28;1197;-96
2022/08/09 00:25:01;;;;;;;;;;;30.50;47.90;;;;;;688754;28;1546;-96
2022/08/09 00:25:22;;;;;;;;;;;;;;;;;;685997;28;1230;-96
2022/08/09 00:25:43;;;;;;;;;;;30.50;48.10;;;;;;689492;28;1370;-94
2022/08/09 00:26:06;;;;;;;;;;;30.40;48.00;;;;;;688465;28;1356;-96
2022/08/09 00:26:27;;;;;;;;;;;30.50;48.30;;;;;;689799;28;1255;-95
2022/08/09 00:26:48;;;;;;;;;;;30.50;48.40;;;;;;688182;28;1973;-93
2022/08/09 00:27:08;;;;;;;;;;;30.40;48.50;;;;;;685794;28;1239;-94
2022/08/09 00:27:29;;;;;;;;;;;30.40;48.50;;;;;;683922;28;1313;-95
2022/08/09 00:27:50;;;;;;;;;;;30.40;48.50;;;;;;681449;29;1315;-95
2022/08/09 00:28:11;;;;;;;;;;;30.40;48.60;;;;;;683819;28;1214;-95
2022/08/09 00:28:31;;;;;;;;;;;30.40;48.60;;;;;;683203;29;1394;-90
2022/08/09 00:28:52;;;;;;;;;;;30.40;48.80;;;;;;681846;28;1295;-94
2022/08/09 00:29:13;;;;;;;;;;;30.40;48.80;;;;;;686507;28;1361;-94
2022/08/09 00:29:34;;;;;;;;;;;30.40;49.00;;;;;;688698;28;1326;-95
2022/08/09 00:29:55;;;;;;;;;;;30.40;48.80;;;;;;689128;28;831;-95
2022/08/09 00:30:15;;;;;;;;;;;30.40;48.90;;;;;;691558;28;1209;-94
2022/08/09 00:30:36;;;;;;;;;;;30.40;49.00;;;;;;694187;28;1348;-95
2022/08/09 00:30:57;;;;;;;;;;;30.40;49.00;;;;;;694171;28;1333;-93
2022/08/09 00:31:18;;;;;;;;;;;30.40;49.00;;;;;;691217;28;1299;-95
2022/08/09 00:31:39;;;;;;;;;;;30.40;49.00;;;;;;688525;28;1257;-93
2022/08/09 00:32:00;;;;;;;;;;;30.40;49.10;;;;;;688464;28;1180;-93
2022/08/09 00:32:26;;;;;;;;;;;30.40;49.10;;;;;;686213;28;1193;-96
2022/08/09 00:32:47;;;;;;;;;;;30.40;49.20;;;;;;688160;28;1246;-96
2022/08/09 00:33:11;;;;;;;;;;;30.40;49.20;;;;;;691444;28;922;-93
2022/08/09 00:33:35;;;;;;;;;;;30.40;49.20;;;;;;691423;28;934;-95
2022/08/09 00:33:56;;;;;;;;;;;30.40;49.30;;;;;;690385;28;1384;-94
2022/08/09 00:34:20;;;;;;;;;;;30.40;49.30;;;;;;692735;28;1258;-91
2022/08/09 00:34:40;;;;;;;;;;;30.40;49.30;;;;;;691476;28;1519;-95
2022/08/09 00:35:02;;;;;;;;;;;30.40;49.30;;;;;;688613;28;1312;-93
2022/08/09 00:35:22;;;;;;;;;;;30.40;49.30;;;;;;686967;28;1427;-93
2022/08/09 00:35:46;;;;;;;;;;;30.40;49.30;;;;;;689197;28;1209;-92
2022/08/09 00:36:07;;;;;;;;;;;30.40;49.40;;;;;;686184;28;1212;-94
2022/08/09 00:36:27;;;;;;;;;;;30.40;49.40;;;;;;688576;28;1256;-95
2022/08/09 00:36:49;;;;;;;;;;;30.50;49.50;;;;;;689054;28;1491;-90
2022/08/09 00:37:11;;;;;;;;;;;30.40;49.40;;;;;;686294;28;1790;-96
2022/08/09 00:37:31;;;;;;;;;;;30.50;49.50;;;;;;686903;28;1196;-95
2022/08/09 00:37:52;;;;;;;;;;;;;;;;;;685075;28;1334;-95
2022/08/09 00:38:14;;;;;;;;;;;30.50;49.50;;;;;;689328;28;1371;-87
2022/08/09 00:38:41;;;;;;;;;;;30.50;49.50;;;;;;689074;28;1289;-94
2022/08/09 00:39:01;;;;;;;;;;;30.40;49.40;;;;;;692415;28;1210;-93
2022/08/09 00:39:22;;;;;;;;;;;30.50;49.50;;;;;;691171;28;1424;-94
2022/08/09 00:39:44;;;;;;;;;;;30.30;49.30;;;;;;692444;28;1227;-95
2022/08/09 00:40:18;;;;;;;;;;;30.40;49.50;;;;;;694598;28;1171;-95
2022/08/09 00:40:48;;;;;;;;;;;30.50;50.20;;;;;;686619;28;1374;-91
2022/08/09 00:41:12;;;;;;;;;;;30.50;49.60;;;;;;685985;28;1331;-95
2022/08/09 00:41:34;;;;;;;;;;;30.50;49.60;;;;;;689091;28;1068;-86
2022/08/09 00:41:56;;;;;;;;;;;30.50;49.30;;;;;;686511;28;1200;-91
2022/08/09 00:42:38;;;;;;;;;;;30.50;49.50;;;;;;688732;28;1347;-85
2022/08/09 00:43:08;;;;;;;;;;;30.50;49.20;;;;;;690368;28;1251;-86
2022/08/09 00:43:53;;;;;;;;;;;30.60;49.30;;;;;;686008;29;1003;-85
2022/08/09 00:44:39;;;;;;;;;;;30.60;49.10;;;;;;677940;29;1453;-91
2022/08/09 00:45:36;;;;;;;;;;;30.60;49.00;;;;;;676427;29;1197;-86
2022/08/09 00:46:18;;;;;;;;;;;30.70;49.10;;;;;;678395;29;1148;-91
2022/08/09 00:46:42;;;;;;;;;;;30.70;49.20;;;;;;677182;29;1899;-88
2022/08/09 00:47:21;;;;;;;;;;;30.70;49.20;;;;;;680539;29;1013;-90
2022/08/09 00:47:44;;;;;;;;;;;30.70;49.30;;;;;;681022;29;981;-86
2022/08/09 00:48:13;;;;;;;;;;;30.70;49.20;;;;;;680630;29;984;-90
2022/08/09 00:48:44;;;;;;;;;;;30.60;49.30;;;;;;674898;29;1009;-86
2022/08/09 00:49:21;;;;;;;;;;;30.70;49.30;;;;;;676645;29;987;-90
2022/08/09 00:50:14;;;;;;;;;;;30.70;49.30;;;;;;675532;29;949;-86
2022/08/09 00:50:35;;;;;;;;;;;30.70;49.40;;;;;;677251;29;976;-86
2022/08/09 00:51:10;;;;;;;;;;;30.70;49.30;;;;;;677232;29;1349;-86
2022/08/09 00:51:41;;;;;;;;;;;30.70;49.20;;;;;;680001;29;1154;-86
2022/08/09 00:52:02;;;;;;;;;;;30.70;49.30;;;;;;677970;29;1063;-88
2022/08/09 00:52:29;;;;;;;;;;;30.60;49.20;;;;;;680522;29;1391;-90
2022/08/09 00:52:57;;;;;;;;;;;30.70;49.40;;;;;;680117;29;1225;-94
2022/08/09 00:53:38;;;;;;;;;;;30.70;49.30;;;;;;681259;29;936;-87
2022/08/09 00:54:19;;;;;;;;;;;30.70;49.30;;;;;;681906;29;957;-90
2022/08/09 00:55:09;;;;;;;;;;;30.60;49.20;;;;;;680679;29;1385;-86
2022/08/09 00:55:52;;;;;;;;;;;30.60;49.20;;;;;;677920;29;1284;-86
2022/08/09 00:56:34;;;;;;;;;;;;;;;;;;680892;29;1205;-87
2022/08/09 00:57:00;;;;;;;;;;;30.60;49.30;;;;;;682822;29;1356;-88
2022/08/09 00:58:02;;;;;;;;;;;30.60;49.20;;;;;;680857;29;990;-88
2022/08/09 00:58:37;;;;;;;;;;;30.70;49.30;;;;;;678022;29;900;-87
2022/08/09 00:59:34;;;;;;;;;;;30.70;49.20;;;;;;673500;29;930;-86
2022/08/09 01:00:11;;;;;;;;;;;30.70;49.20;;;;;;672444;29;940;-89
2022/08/09 01:00:39;;;;;;;;;;;30.70;49.20;;;;;;672718;29;1274;-87
2022/08/09 01:02:01;;;;;;;;;;;30.70;48.90;;;;;;701541;28;1478;-87
2022/08/09 01:02:26;;;;;;;;;;;30.70;49.00;;;;;;699002;28;1435;-87
2022/08/09 01:02:49;;;;;;;;;;;30.70;49.00;;;;;;697283;28;1246;-86
2022/08/09 01:03:19;;;;;;;;;;;30.70;49.00;;;;;;700335;28;870;-86
2022/08/09 01:03:48;;;;;;;;;;;30.70;49.00;;;;;;699797;28;1355;-89
2022/08/09 01:05:13;;;;;;;;;;;;;;;;;;821472;22;2172;-87
2022/08/09 01:05:45;;;;;;;;;;;30.70;48.70;;;;;;697580;28;1443;-88
2022/08/09 01:06:19;;;;;;;;;;;30.70;48.80;;;;;;699676;28;1203;-87
2022/08/09 01:06:57;;;;;;;;;;;30.70;48.90;;;;;;697201;28;1948;-88
2022/08/09 01:07:36;;;;;;;;;;;30.70;49.00;;;;;;697955;28;1238;-88
2022/08/09 01:08:03;;;;;;;;;;;30.70;49.10;;;;;;701679;28;980;-87
2022/08/09 01:08:42;;;;;;;;;;;30.60;49.10;;;;;;703623;28;941;-84
2022/08/09 01:09:03;;;;;;;;;;;30.60;49.20;;;;;;705342;28;865;-87
2022/08/09 01:09:23;;;;;;;;;;;30.60;49.20;;;;;;702369;28;1250;-88
2022/08/09 01:10:00;;;;;;;;;;;30.60;49.20;;;;;;703113;28;1212;-87
2022/08/09 01:10:27;;;;;;;;;;;30.60;49.30;;;;;;703499;28;869;-87
2022/08/09 01:10:57;;;;;;;;;;;30.60;49.30;;;;;;703680;28;924;-87
2022/08/09 01:11:30;;;;;;;;;;;30.60;49.40;;;;;;698949;28;1068;-87
2022/08/09 01:11:57;;;;;;;;;;;30.60;49.40;;;;;;701316;28;1125;-87
2022/08/09 01:12:38;;;;;;;;;;;30.60;49.30;;;;;;702921;28;1397;-87
2022/08/09 01:30:03;;;;;;;;;;;;;;;;;;702936;28;1203;-88
2022/08/09 01:30:56;;;;;;;;;;;30.90;48.30;;;;;;697972;28;1228;-91
2022/08/09 01:31:58;;;;;;;;;;;30.80;48.50;;;;;;692703;28;821;-88
2022/08/09 01:33:01;;;;;;;;;;;30.80;48.50;;;;;;692353;28;975;-94
2022/08/09 01:33:29;;;;;;;;;;;30.80;48.60;;;;;;681706;29;1736;-94
2022/08/09 01:33:53;;;;;;;;;;;30.80;48.60;;;;;;682017;29;1386;-96
2022/08/09 01:34:16;;;;;;;;;;;30.80;48.60;;;;;;681091;29;1293;-95
2022/08/09 01:36:26;;;;;;;;;;;;;;;;;;742273;23;1843;-90
2022/08/09 01:36:53;;;;;;;;;;;30.80;48.50;;;;;;696828;28;1817;-96
2022/08/09 01:37:20;;;;;;;;;;;30.80;48.50;;;;;;693799;28;1259;-95
2022/08/09 01:37:44;;;;;;;;;;;30.80;48.50;;;;;;686496;28;941;-92
2022/08/09 01:38:33;;;;;;;;;;;30.70;48.40;;;;;;685845;28;1457;-94
2022/08/09 01:39:42;;;;;;;;;;;30.70;48.60;;;;;;691899;28;1084;-87
2022/08/09 01:40:07;;;;;;;;;;;30.70;48.60;;;;;;698934;28;905;-94
2022/08/09 01:40:33;;;;;;;;;;;30.70;48.50;;;;;;693216;28;959;-96
2022/08/09 01:41:15;;;;;;;;;;;30.70;48.60;;;;;;692424;28;1473;-96
2022/08/09 01:41:47;;;;;;;;;;;30.70;48.50;;;;;;692840;28;941;-96
2022/08/09 01:42:22;;;;;;;;;;;30.70;48.70;;;;;;693774;28;1246;-92
2022/08/09 01:43:09;;;;;;;;;;;30.70;48.60;;;;;;693306;28;945;-88
2022/08/09 01:44:41;;;;;;;;;;;30.60;48.50;;;;;;689403;28;873;-87
2022/08/09 01:45:37;;;;;;;;;;;30.70;48.60;;;;;;687057;29;903;-87
2022/08/09 01:52:30;;;;;;;;;;;30.70;48.30;;;;;;696809;28;1426;-90
2022/08/09 01:53:56;;;;;;;;;;;30.70;48.50;;;;;;699619;28;608;-88
2022/08/09 01:54:30;;;;;;;;;;;30.70;48.60;;;;;;697808;28;922;-90
2022/08/09 01:54:56;;;;;;;;;;;30.60;48.50;;;;;;698257;28;828;-91
2022/08/09 01:55:19;;;;;;;;;;;30.70;48.70;;;;;;698211;28;896;-95
2022/08/09 01:55:41;;;;;;;;;;;30.70;48.60;;;;;;697880;28;944;-92
2022/08/09 01:56:23;;;;;;;;;;;30.60;48.50;;;;;;695658;28;1289;-95
2022/08/09 01:57:00;;;;;;;;;;;30.60;48.60;;;;;;696376;28;927;-87
2022/08/09 01:57:44;;;;;;;;;;;30.60;48.70;;;;;;696068;28;826;-96
2022/08/09 02:17:11;;;;;;;;;;;30.70;48.30;;;;;;693920;28;1242;-93
2022/08/09 02:17:33;;;;;;;;;;;30.60;48.50;;;;;;694649;28;790;-95
2022/08/09 02:17:54;;;;;;;;;;;30.60;48.50;;;;;;694547;28;838;-96
2022/08/09 02:18:16;;;;;;;;;;;30.60;48.50;;;;;;691515;28;1463;-94
2022/08/09 02:18:38;;;;;;;;;;;30.60;48.60;;;;;;691569;28;1333;-96
2022/08/09 02:18:59;;;;;;;;;;;30.60;48.60;;;;;;691453;28;1252;-94
2022/08/09 02:19:20;;;;;;;;;;;30.50;48.60;;;;;;691728;28;1212;-93
2022/08/09 02:19:41;;;;;;;;;;;30.50;48.70;;;;;;691513;28;791;-92
2022/08/09 02:20:02;;;;;;;;;;;30.50;48.70;;;;;;691561;28;1343;-91
2022/08/09 02:20:24;;;;;;;;;;;30.50;48.80;;;;;;691530;28;1360;-95
2022/08/09 02:20:48;;;;;;;;;;;30.50;48.70;;;;;;691480;28;826;-96
2022/08/09 02:21:14;;;;;;;;;;;30.50;48.70;;;;;;688847;28;1362;-94
2022/08/09 02:21:42;;;;;;;;;;;30.50;48.80;;;;;;688777;28;1227;-92
2022/08/09 02:22:08;;;;;;;;;;;30.50;48.80;;;;;;686016;28;1102;-96
2022/08/09 02:22:35;;;;;;;;;;;30.50;48.80;;;;;;686562;28;1218;-94
2022/08/09 02:23:08;;;;;;;;;;;30.50;48.90;;;;;;685969;28;1485;-95
2022/08/09 02:23:35;;;;;;;;;;;30.50;48.90;;;;;;685970;28;1307;-95
2022/08/09 02:24:00;;;;;;;;;;;30.30;48.80;;;;;;686164;28;1695;-94
2022/08/09 02:24:23;;;;;;;;;;;30.40;48.90;;;;;;687636;28;843;-94
2022/08/09 02:24:55;;;;;;;;;;;30.50;48.90;;;;;;686047;28;1225;-94
2022/08/09 02:25:41;;;;;;;;;;;30.50;49.20;;;;;;689673;28;921;-94
2022/08/09 02:26:28;;;;;;;;;;;;;;;;;;771794;22;2079;-90
2022/08/09 02:26:52;;;;;;;;;;;30.50;48.70;;;;;;701670;28;1921;-91
2022/08/09 02:27:25;;;;;;;;;;;30.50;48.70;;;;;;701642;28;969;-94
2022/08/09 02:28:10;;;;;;;;;;;30.50;48.80;;;;;;700913;28;882;-91
2022/08/09 02:28:31;;;;;;;;;;;30.50;48.70;;;;;;702107;28;846;-93
2022/08/09 02:29:09;;;;;;;;;;;30.50;48.80;;;;;;702052;28;1136;-92
2022/08/09 02:29:47;;;;;;;;;;;30.50;48.80;;;;;;697619;28;1370;-96
2022/08/09 02:31:03;;;;;;;;;;;30.50;48.80;;;;;;698486;28;1364;-96
2022/08/09 02:31:31;;;;;;;;;;;30.50;48.80;;;;;;699048;28;913;-96
2022/08/09 02:31:54;;;;;;;;;;;30.50;48.70;;;;;;696926;28;1317;-96
2022/08/09 02:32:18;;;;;;;;;;;30.50;48.70;;;;;;693651;28;1333;-94
2022/08/09 02:32:42;;;;;;;;;;;30.50;48.80;;;;;;694057;28;1220;-94
2022/08/09 02:33:03;;;;;;;;;;;30.50;48.80;;;;;;692002;28;969;-93
2022/08/09 02:33:25;;;;;;;;;;;30.50;49.10;;;;;;691691;28;1351;-94
2022/08/09 02:33:47;;;;;;;;;;;30.50;48.80;;;;;;691991;28;1242;-94
2022/08/09 02:34:10;;;;;;;;;;;30.50;48.80;;;;;;696638;28;1226;-96
2022/08/09 02:34:35;;;;;;;;;;;30.50;48.70;;;;;;699071;28;1017;-94
2022/08/09 02:34:59;;;;;;;;;;;30.50;48.70;;;;;;699925;28;1265;-96
2022/08/09 02:35:21;;;;;;;;;;;30.50;48.60;;;;;;696979;28;1274;-94
2022/08/09 02:35:43;;;;;;;;;;;30.50;48.60;;;;;;696333;28;1424;-93
2022/08/09 02:36:06;;;;;;;;;;;30.50;48.70;;;;;;692136;28;1212;-96
2022/08/09 02:36:32;;;;;;;;;;;30.50;48.70;;;;;;694372;28;1472;-93
2022/08/09 02:36:54;;;;;;;;;;;30.60;48.70;;;;;;694279;28;1313;-96
2022/08/09 02:37:16;;;;;;;;;;;30.50;48.60;;;;;;696304;28;1262;-93
2022/08/09 02:37:38;;;;;;;;;;;30.60;48.60;;;;;;696156;28;1273;-96
2022/08/09 02:37:59;;;;;;;;;;;30.60;48.50;;;;;;697040;28;1291;-96
2022/08/09 02:38:22;;;;;;;;;;;30.50;48.50;;;;;;695335;28;1231;-95
2022/08/09 02:38:47;;;;;;;;;;;30.60;48.60;;;;;;691557;28;1319;-96
2022/08/09 02:39:12;;;;;;;;;;;30.60;48.50;;;;;;690275;28;1225;-91
2022/08/09 02:39:34;;;;;;;;;;;30.60;48.50;;;;;;690915;28;1427;-96
2022/08/09 02:39:57;;;;;;;;;;;30.60;48.50;;;;;;686233;28;1291;-93
2022/08/09 02:40:19;;;;;;;;;;;30.60;48.50;;;;;;688784;28;1218;-96
2022/08/09 02:40:41;;;;;;;;;;;30.60;48.50;;;;;;688650;28;1214;-94
2022/08/09 02:41:07;;;;;;;;;;;30.60;48.50;;;;;;691462;28;1319;-96
2022/08/09 02:41:31;;;;;;;;;;;30.60;48.50;;;;;;693275;28;1459;-94
2022/08/09 02:42:05;;;;;;;;;;;30.60;48.50;;;;;;696338;28;1203;-94
2022/08/09 02:42:39;;;;;;;;;;;30.60;48.60;;;;;;694180;28;1317;-96
2022/08/09 02:43:01;;;;;;;;;;;30.60;48.30;;;;;;694178;28;1215;-89
2022/08/09 02:43:23;;;;;;;;;;;30.60;48.30;;;;;;694070;28;1197;-93
2022/08/09 02:43:44;;;;;;;;;;;30.60;48.30;;;;;;696863;28;1466;-95
2022/08/09 02:44:07;;;;;;;;;;;30.60;48.30;;;;;;694262;28;1259;-96
2022/08/09 02:44:31;;;;;;;;;;;30.60;48.30;;;;;;697020;28;1183;-95
2022/08/09 02:44:55;;;;;;;;;;;30.60;48.20;;;;;;697053;28;961;-95
2022/08/09 02:45:17;;;;;;;;;;;30.60;48.10;;;;;;696079;28;1322;-96
2022/08/09 02:45:41;;;;;;;;;;;30.60;48.00;;;;;;692515;28;1264;-96
2022/08/09 02:46:03;;;;;;;;;;;30.60;48.00;;;;;;691793;28;1229;-96
2022/08/09 02:46:26;;;;;;;;;;;30.60;48.10;;;;;;690673;28;1338;-90
2022/08/09 02:46:49;;;;;;;;;;;30.60;48.10;;;;;;691034;28;1970;-96
2022/08/09 02:47:12;;;;;;;;;;;30.60;48.00;;;;;;691419;28;1436;-92
2022/08/09 02:47:33;;;;;;;;;;;30.60;48.00;;;;;;694214;28;1397;-95
2022/08/09 02:47:58;;;;;;;;;;;30.60;48.10;;;;;;696993;28;1163;-96
2022/08/09 02:48:21;;;;;;;;;;;30.50;47.80;;;;;;697109;28;898;-95
2022/08/09 02:48:45;;;;;;;;;;;30.60;48.00;;;;;;697194;28;993;-94
2022/08/09 02:49:13;;;;;;;;;;;30.50;48.00;;;;;;696448;28;1311;-93
2022/08/09 02:49:37;;;;;;;;;;;30.60;48.00;;;;;;697023;28;1275;-96
2022/08/09 02:50:01;;;;;;;;;;;30.60;47.90;;;;;;696048;28;1265;-96
2022/08/09 02:50:25;;;;;;;;;;;30.50;47.80;;;;;;697079;28;1172;-95
2022/08/09 02:50:50;;;;;;;;;;;30.60;48.00;;;;;;696956;28;1236;-95
2022/08/09 02:51:11;;;;;;;;;;;30.60;48.00;;;;;;694074;28;1296;-94
2022/08/09 02:51:35;;;;;;;;;;;30.50;47.80;;;;;;696443;28;1296;-92
2022/08/09 02:51:57;;;;;;;;;;;30.50;47.70;;;;;;691886;28;1340;-95
2022/08/09 02:52:18;;;;;;;;;;;30.50;47.70;;;;;;694017;28;1321;-95
2022/08/09 02:52:45;;;;;;;;;;;30.60;47.70;;;;;;691529;28;1232;-95
2022/08/09 02:53:19;;;;;;;;;;;30.60;47.80;;;;;;692314;28;1407;-93
2022/08/09 02:53:43;;;;;;;;;;;30.50;47.60;;;;;;697329;28;1012;-93
2022/08/09 02:54:06;;;;;;;;;;;30.60;47.70;;;;;;696471;28;1343;-94
2022/08/09 02:54:47;;;;;;;;;;;30.60;47.70;;;;;;695077;28;1212;-92
2022/08/09 02:55:10;;;;;;;;;;;30.50;47.40;;;;;;689368;28;1108;-96
2022/08/09 02:55:54;;;;;;;;;;;30.60;47.50;;;;;;689069;28;1278;-91
2022/08/09 02:56:16;;;;;;;;;;;30.50;47.40;;;;;;688277;28;1569;-90
2022/08/09 02:56:40;;;;;;;;;;;30.60;47.50;;;;;;688800;28;1359;-94
2022/08/09 02:58:03;;;;;;;;;;;30.60;47.20;;;;;;621482;26;1922;-89
2022/08/09 02:58:39;;;;;;;;;;;30.60;47.30;;;;;;694391;28;1458;-91
2022/08/09 02:59:02;;;;;;;;;;;30.60;47.20;;;;;;698061;28;870;-94
2022/08/09 02:59:25;;;;;;;;;;;30.60;47.20;;;;;;697303;28;1332;-93
2022/08/09 02:59:47;;;;;;;;;;;30.60;47.20;;;;;;694461;28;1025;-92
2022/08/09 03:00:12;;;;;;;;;;;30.60;47.30;;;;;;694208;28;1347;-93
2022/08/09 03:00:35;;;;;;;;;;;30.60;47.30;;;;;;697665;28;1264;-89
2022/08/09 03:00:59;;;;;;;;;;;30.60;47.20;;;;;;697343;28;1880;-87
2022/08/09 03:01:22;;;;;;;;;;;30.60;47.10;;;;;;695291;28;1011;-90
2022/08/09 03:01:44;;;;;;;;;;;;;;;;;;694540;28;1171;-93
2022/08/09 03:02:16;;;;;;;;;;;30.60;47.20;;;;;;694417;28;977;-88
2022/08/09 03:02:51;;;;;;;;;;;30.60;47.30;;;;;;692716;28;1278;-94
2022/08/09 03:03:14;;;;;;;;;;;30.60;47.10;;;;;;692401;28;998;-93
2022/08/09 03:03:40;;;;;;;;;;;30.60;47.10;;;;;;692309;28;938;-91
2022/08/09 03:04:07;;;;;;;;;;;30.70;47.10;;;;;;691075;28;954;-92
2022/08/09 03:04:30;;;;;;;;;;;30.60;47.00;;;;;;692537;28;1692;-91
2022/08/09 03:05:00;;;;;;;;;;;30.70;47.00;;;;;;692585;28;880;-90
2022/08/09 03:05:36;;;;;;;;;;;30.60;47.00;;;;;;692151;28;1211;-95
2022/08/09 03:06:13;;;;;;;;;;;30.60;46.90;;;;;;691694;28;966;-88
2022/08/09 03:06:45;;;;;;;;;;;30.70;47.00;;;;;;691329;28;1288;-91
2022/08/09 03:07:06;;;;;;;;;;;30.60;46.80;;;;;;689377;28;1006;-93
2022/08/09 03:07:35;;;;;;;;;;;30.60;46.80;;;;;;689804;28;945;-91
2022/08/09 03:07:58;;;;;;;;;;;30.70;46.90;;;;;;689452;28;814;-91
2022/08/09 03:08:21;;;;;;;;;;;30.70;46.90;;;;;;689489;28;1049;-95
2022/08/09 03:08:42;;;;;;;;;;;30.70;46.90;;;;;;691260;28;1333;-93
2022/08/09 03:09:03;;;;;;;;;;;30.60;46.80;;;;;;693609;28;1361;-93
2022/08/09 03:09:25;;;;;;;;;;;30.70;46.90;;;;;;691435;28;1513;-94
2022/08/09 03:09:45;;;;;;;;;;;30.60;46.80;;;;;;688656;28;1199;-92
2022/08/09 03:10:07;;;;;;;;;;;30.60;46.80;;;;;;688623;28;1192;-92
2022/08/09 03:10:28;;;;;;;;;;;30.70;46.90;;;;;;688762;28;1248;-91
2022/08/09 03:10:49;;;;;;;;;;;30.60;46.80;;;;;;688685;28;1296;-94
2022/08/09 03:11:13;;;;;;;;;;;30.70;46.90;;;;;;686437;28;1206;-95
2022/08/09 03:11:34;;;;;;;;;;;30.70;46.90;;;;;;686858;28;1189;-96
2022/08/09 03:11:55;;;;;;;;;;;30.70;46.90;;;;;;688640;28;941;-91
2022/08/09 03:12:16;;;;;;;;;;;30.60;46.80;;;;;;688745;28;1067;-94
2022/08/09 03:12:38;;;;;;;;;;;30.60;46.80;;;;;;689916;28;1291;-92
2022/08/09 03:12:59;;;;;;;;;;;;;;;;;;691163;28;1340;-95
2022/08/09 03:13:24;;;;;;;;;;;30.60;46.70;;;;;;691461;28;1346;-90
2022/08/09 03:13:47;;;;;;;;;;;30.70;46.80;;;;;;691464;28;980;-93
2022/08/09 03:14:09;;;;;;;;;;;30.70;46.80;;;;;;691370;28;1359;-92
2022/08/09 03:14:30;;;;;;;;;;;30.70;46.80;;;;;;688703;28;1296;-90
2022/08/09 03:14:51;;;;;;;;;;;30.60;46.60;;;;;;690365;28;818;-95
2022/08/09 03:15:12;;;;;;;;;;;30.70;46.70;;;;;;691326;28;1489;-95
2022/08/09 03:15:33;;;;;;;;;;;30.60;46.70;;;;;;691380;28;1252;-90
2022/08/09 03:15:54;;;;;;;;;;;30.60;46.70;;;;;;691398;28;1411;-91
2022/08/09 03:16:18;;;;;;;;;;;30.60;46.70;;;;;;689214;28;1216;-92
2022/08/09 03:16:39;;;;;;;;;;;30.70;46.80;;;;;;688781;28;1489;-94
2022/08/09 03:17:01;;;;;;;;;;;30.60;46.60;;;;;;688727;28;1012;-94
2022/08/09 03:17:22;;;;;;;;;;;30.60;46.70;;;;;;685948;28;1224;-93
2022/08/09 03:17:43;;;;;;;;;;;30.60;46.70;;;;;;684379;28;1588;-88
2022/08/09 03:18:05;;;;;;;;;;;30.70;46.80;;;;;;686969;28;1204;-95
2022/08/09 03:18:26;;;;;;;;;;;30.60;46.70;;;;;;689470;28;1454;-92
2022/08/09 03:18:46;;;;;;;;;;;30.60;46.70;;;;;;688666;28;1258;-94
2022/08/09 03:19:07;;;;;;;;;;;30.70;46.80;;;;;;691334;28;1208;-91
2022/08/09 03:19:30;;;;;;;;;;;30.60;46.60;;;;;;688799;28;1221;-96
2022/08/09 03:19:53;;;;;;;;;;;30.60;46.60;;;;;;688834;28;1222;-90
2022/08/09 03:20:15;;;;;;;;;;;30.60;46.60;;;;;;686276;28;1397;-92
2022/08/09 03:20:50;;;;;;;;;;;30.60;46.60;;;;;;689766;28;1504;-88
2022/08/09 03:21:41;;;;;;;;;;;30.60;46.60;;;;;;689424;28;949;-87
2022/08/09 03:24:46;;;;;;;;;;;30.70;46.20;;;;;;701547;26;2973;-86
2022/08/09 03:25:08;;;;;;;;;;;30.70;46.20;;;;;;704575;28;1405;-87
2022/08/09 03:25:30;;;;;;;;;;;30.70;46.30;;;;;;701626;28;1324;-88
2022/08/09 03:25:53;;;;;;;;;;;30.70;46.40;;;;;;701871;28;1043;-87
2022/08/09 03:26:23;;;;;;;;;;;30.70;46.30;;;;;;702211;28;829;-87
2022/08/09 03:27:12;;;;;;;;;;;30.70;46.40;;;;;;696140;28;1899;-87
2022/08/09 03:36:47;;;;;;;;;;;30.50;47.10;;;;;;707250;28;682;-87
2022/08/09 03:37:15;;;;;;;;;;;30.50;46.20;;;;;;698749;28;1050;-87
2022/08/09 03:37:45;;;;;;;;;;;30.50;46.20;;;;;;697595;28;979;-86
2022/08/09 03:38:15;;;;;;;;;;;30.50;46.20;;;;;;696244;28;1522;-87
2022/08/09 03:39:17;;;;;;;;;;;30.50;46.20;;;;;;703239;28;1060;-86
2022/08/09 03:39:44;;;;;;;;;;;30.50;46.10;;;;;;701458;28;1180;-87
2022/08/09 03:40:06;;;;;;;;;;;30.50;46.20;;;;;;704651;28;1760;-87
2022/08/09 03:40:39;;;;;;;;;;;30.50;46.10;;;;;;705421;28;1137;-87
2022/08/09 03:41:24;;;;;;;;;;;30.50;46.20;;;;;;704140;28;849;-87
2022/08/09 03:41:55;;;;;;;;;;;30.50;46.00;;;;;;694211;28;1045;-87
2022/08/09 03:43:06;;;;;;;;;;;30.50;46.00;;;;;;694541;28;896;-87
2022/08/09 03:48:41;;;;;;;;;;;30.50;45.80;;;;;;684378;28;774;-92
2022/08/09 03:49:11;;;;;;;;;;;30.50;45.80;;;;;;684578;29;1159;-95
2022/08/09 03:49:36;;;;;;;;;;;30.40;45.70;;;;;;683981;28;897;-91
2022/08/09 03:50:12;;;;;;;;;;;30.40;45.80;;;;;;684306;28;943;-92
2022/08/09 03:50:40;;;;;;;;;;;30.50;45.80;;;;;;684121;29;979;-92
2022/08/09 03:51:11;;;;;;;;;;;30.50;45.70;;;;;;682083;28;951;-92
2022/08/09 03:51:55;;;;;;;;;;;30.50;45.80;;;;;;680978;29;932;-93